Time;durP1;ratioP1;P1;durP2;ratioP2;P2;SDS_P1;SDS_P2;PMS_P1;PMS_P2;Temp;Humidity;BMP_temperature;BMP_pressure;BME280_temperature;BME280_humidity;BME280_pressure;Samples;Min_cycle;Max_cycle;Signal;HPM_P1;HPM_P2
2021/09/13 00:00:21;;;;;;;42.48;31.62;;;;;;;16.65;66.07;98807.02;1854614;76;38215;-68
2021/09/13 00:02:56;;;;;;;37.88;24.27;;;;;;;16.68;66.15;98807.81;1870692;76;22551;-70
2021/09/13 00:05:36;;;;;;;35.38;24.07;;;;;;;16.66;65.58;98804.41;1834414;77;22587;-68
2021/09/13 00:08:11;;;;;;;40.43;27.52;;;;;;;16.66;65.46;98804.82;1890030;76;22215;-68
2021/09/13 00:10:46;;;;;;;38.78;26.85;;;;;;;16.61;66.26;98798.41;1870744;76;22109;-69
2021/09/13 00:13:24;;;;;;;36.93;25.70;;;;;;;16.56;65.93;98800.19;1889970;76;22156;-67
2021/09/13 00:15:59;;;;;;;35.25;23.05;;;;;;;16.53;66.11;98797.64;1870695;76;20101;-68
2021/09/13 00:18:34;;;;;;;34.50;23.85;;;;;;;16.49;65.95;98798.59;1889963;76;22557;-67
2021/09/13 00:21:09;;;;;;;43.10;28.50;;;;;;;16.46;66.01;98794.70;1889978;76;22554;-65
2021/09/13 00:23:43;;;;;;;38.05;24.80;;;;;;;16.41;66.59;98793.92;1870708;76;22128;-68
2021/09/13 00:26:18;;;;;;;35.45;25.17;;;;;;;16.36;66.83;98795.32;1870718;76;22133;-65
2021/09/13 00:28:53;;;;;;;48.10;30.80;;;;;;;16.32;67.03;98787.56;1870674;76;22137;-68
2021/09/13 00:31:28;;;;;;;35.63;24.80;;;;;;;16.27;67.37;98791.09;1870672;76;22152;-64
2021/09/13 00:34:04;;;;;;;38.20;24.87;;;;;;;16.23;67.55;98786.83;1870460;76;22160;-65
2021/09/13 00:36:40;;;;;;;36.40;26.17;;;;;;;16.22;67.78;98787.69;1889962;76;22590;-65
2021/09/13 00:39:14;;;;;;;38.85;27.02;;;;;;;16.23;67.94;98788.13;1870705;76;22188;-63
2021/09/13 00:41:49;;;;;;;39.70;26.70;;;;;;;16.25;68.14;98785.48;1870708;76;22133;-64
2021/09/13 00:44:24;;;;;;;47.80;31.68;;;;;;;16.24;68.26;98784.63;1870740;76;22109;-66
2021/09/13 00:47:00;;;;;;;38.92;29.15;;;;;;;16.22;68.51;98779.88;1870674;76;22136;-64
2021/09/13 00:49:35;;;;;;;46.18;28.95;;;;;;;16.21;68.62;98777.32;1870703;76;22141;-63
2021/09/13 00:52:10;;;;;;;43.20;28.92;;;;;;;16.17;68.84;98778.23;1870813;76;22145;-65
2021/09/13 00:54:46;;;;;;;33.53;23.65;;;;;;;16.13;68.75;98776.13;1870768;76;22128;-69
2021/09/13 00:57:23;;;;;;;40.50;28.42;;;;;;;16.11;68.53;98781.80;1889996;76;22148;-67
2021/09/13 00:59:59;;;;;;;36.73;26.23;;;;;;;16.09;68.69;98775.74;1870480;76;22169;-69
2021/09/13 01:02:54;;;;;;;35.98;26.02;;;;;;;16.07;68.72;98777.50;1889967;76;22139;-67
2021/09/13 01:05:50;;;;;;;37.13;25.00;;;;;;;16.04;68.72;98769.75;1873824;75;22199;-69
2021/09/13 01:08:25;;;;;;;37.63;25.70;;;;;;;16.02;68.77;98774.95;1854842;76;27948;-71
2021/09/13 01:11:10;;;;;;;44.03;26.85;;;;;;;16.06;68.71;98775.34;1890021;76;22191;-68
2021/09/13 01:13:47;;;;;;;37.35;26.02;;;;;;;16.04;69.00;98776.25;1870428;76;22563;-66
2021/09/13 01:16:22;;;;;;;39.80;26.40;;;;;;;16.03;68.91;98781.05;1870508;76;22551;-67
2021/09/13 01:18:57;;;;;;;38.10;24.50;;;;;;;16.03;69.27;98781.91;1889988;76;22148;-69
2021/09/13 01:21:35;;;;;;;30.25;21.35;;;;;;;16.04;69.21;98776.25;1889962;76;22542;-70
2021/09/13 01:24:10;;;;;;;34.88;22.40;;;;;;;16.01;69.02;98775.00;1889944;76;22139;-67
2021/09/13 01:26:47;;;;;;;34.45;21.17;;;;;;;16.01;68.81;98774.55;1870449;76;22168;-67
2021/09/13 01:29:21;;;;;;;31.25;20.92;;;;;;;16.01;68.61;98778.45;1870670;76;22145;-68
2021/09/13 01:31:57;;;;;;;36.58;24.65;;;;;;;16.00;68.31;98777.16;1870727;76;22145;-68
2021/09/13 01:34:32;;;;;;;37.40;25.80;;;;;;;15.99;68.63;98779.36;1870676;76;22141;-67
2021/09/13 01:37:09;;;;;;;41.10;26.45;;;;;;;15.95;68.78;98779.86;1870438;76;22680;-67
2021/09/13 01:39:44;;;;;;;41.98;29.65;;;;;;;15.91;69.01;98783.81;1870612;76;22141;-67
2021/09/13 01:42:18;;;;;;;44.15;30.95;;;;;;;15.84;69.51;98782.58;1889962;76;22229;-70
2021/09/13 01:44:53;;;;;;;41.63;28.20;;;;;;;15.75;70.42;98779.27;1870664;76;22117;-68
2021/09/13 01:47:31;;;;;;;37.60;25.35;;;;;;;15.65;70.63;98782.38;1870486;76;22144;-68
2021/09/13 01:50:08;;;;;;;38.45;24.72;;;;;;;15.59;70.74;98783.30;1889949;76;22124;-67
2021/09/13 01:52:43;;;;;;;34.58;24.40;;;;;;;15.56;70.67;98777.28;1889951;76;22550;-66
2021/09/13 01:55:17;;;;;;;37.70;26.30;;;;;;;15.58;70.84;98783.33;1870791;76;22140;-69
2021/09/13 01:57:52;;;;;;;38.75;24.60;;;;;;;15.57;70.92;98774.67;1889977;76;22136;-72
2021/09/13 02:00:27;;;;;;;38.92;27.98;;;;;;;15.58;70.77;98778.12;1870697;76;22121;-69
2021/09/13 02:03:08;;;;;;;34.08;24.37;;;;;;;15.55;71.01;98780.77;1869936;76;22182;-72
2021/09/13 02:05:48;;;;;;;31.65;23.73;;;;;;;15.49;71.10;98779.53;1869857;76;22133;-70
2021/09/13 02:08:23;;;;;;;34.15;23.25;;;;;;;15.45;71.29;98779.16;1870704;76;22112;-74
2021/09/13 02:10:58;;;;;;;38.45;25.77;;;;;;;15.38;71.32;98771.41;1870746;76;22129;-65
2021/09/13 02:13:34;;;;;;;45.98;30.95;;;;;;;15.36;71.44;98773.61;1870718;76;22141;-70
2021/09/13 02:16:28;;;;;;;46.23;28.40;;;;;;;15.30;72.04;98776.30;1889952;76;22222;-71
2021/09/13 02:19:03;;;;;;;44.50;25.75;;;;;;;15.22;72.33;98771.17;1890149;76;22176;-66
2021/09/13 02:21:40;;;;;;;38.78;25.02;;;;;;;15.19;72.39;98770.77;1889939;76;22156;-65
2021/09/13 02:24:15;;;;;;;39.18;23.87;;;;;;;15.19;72.17;98769.92;1870712;76;22122;-64
2021/09/13 02:26:49;;;;;;;39.70;24.18;;;;;;;15.19;72.07;98768.63;1870684;76;22133;-66
2021/09/13 02:29:25;;;;;;;34.15;23.15;;;;;;;15.18;72.28;98769.47;1889982;76;22176;-64
2021/09/13 02:32:02;;;;;;;39.08;25.92;;;;;;;15.14;72.18;98771.70;1870683;76;22141;-65
2021/09/13 02:34:37;;;;;;;39.42;24.63;;;;;;;15.12;72.29;98774.75;1870690;76;22152;-67
2021/09/13 02:37:15;;;;;;;44.27;23.20;;;;;;;15.09;72.20;98771.75;1870216;76;22140;-65
2021/09/13 02:39:50;;;;;;;33.60;23.30;;;;;;;15.06;72.25;98772.20;1870569;76;22133;-65
2021/09/13 02:42:25;;;;;;;38.38;22.82;;;;;;;15.04;72.30;98776.13;1889972;76;22140;-65
2021/09/13 02:45:00;;;;;;;37.60;22.73;;;;;;;15.03;72.30;98777.44;1870690;76;22128;-65
2021/09/13 02:47:36;;;;;;;34.83;23.07;;;;;;;15.03;72.44;98777.44;1889651;76;22184;-64
2021/09/13 02:50:12;;;;;;;33.35;22.13;;;;;;;15.05;72.53;98779.59;1870049;76;22574;-66
2021/09/13 02:52:47;;;;;;;38.48;22.27;;;;;;;15.06;72.32;98776.09;1870672;76;22169;-69
2021/09/13 02:55:28;;;;;;;32.80;21.95;;;;;;;15.07;72.34;98779.14;1890143;76;22156;-71
2021/09/13 02:58:04;;;;;;;31.60;22.07;;;;;;;15.07;72.23;98767.44;1870424;76;22172;-71
2021/09/13 03:00:40;;;;;;;38.88;26.85;;;;;;;15.07;72.27;98775.23;1854820;76;28349;-69
2021/09/13 03:03:15;;;;;;;33.90;24.55;;;;;;;15.11;72.43;98774.31;1870668;76;22149;-72
2021/09/13 03:05:51;;;;;;;30.12;22.10;;;;;;;15.06;72.46;98776.09;1870695;76;22101;-72
2021/09/13 03:08:46;;;;;;;33.90;22.48;;;;;;;15.02;72.57;98771.83;1890033;76;22571;-74
2021/09/13 03:11:22;;;;;;;34.45;22.85;;;;;;;15.03;72.62;98774.84;1870606;76;22555;-72
2021/09/13 03:13:57;;;;;;;34.85;23.38;;;;;;;15.06;72.62;98773.50;1854777;76;28392;-71
2021/09/13 03:16:33;;;;;;;31.10;21.62;;;;;;;15.15;72.44;98773.41;1870527;76;22606;-72
2021/09/13 03:19:08;;;;;;;32.20;22.30;;;;;;;15.18;72.16;98772.08;1870700;76;22137;-73
2021/09/13 03:21:43;;;;;;;37.28;25.23;;;;;;;15.17;72.14;98769.92;1890006;76;22140;-63
2021/09/13 03:24:18;;;;;;;33.48;22.85;;;;;;;15.15;72.26;98779.91;1889958;76;22132;-62
2021/09/13 03:26:53;;;;;;;36.50;21.12;;;;;;;15.12;72.30;98777.35;1889947;76;22136;-63
2021/09/13 03:29:28;;;;;;;29.48;20.57;;;;;;;15.11;72.17;98782.11;1873866;76;28369;-62
2021/09/13 03:32:05;;;;;;;28.90;19.92;;;;;;;15.17;71.96;98779.47;1854609;76;27930;-63
2021/09/13 03:34:40;;;;;;;29.92;20.43;;;;;;;15.26;71.66;98768.95;1873942;76;27911;-65
2021/09/13 03:37:16;;;;;;;28.62;19.20;;;;;;;15.37;71.27;98771.01;1870437;76;22140;-65
2021/09/13 03:39:53;;;;;;;38.63;21.05;;;;;;;15.40;70.96;98770.96;1867327;76;22160;-62
2021/09/13 03:42:34;;;;;;;31.12;20.80;;;;;;;15.39;71.02;98776.17;1889944;76;22156;-68
2021/09/13 03:45:10;;;;;;;31.10;21.33;;;;;;;15.35;71.02;98775.36;1858179;76;22152;-65
2021/09/13 03:47:45;;;;;;;36.30;21.50;;;;;;;15.34;70.96;98774.95;1854719;76;27967;-64
2021/09/13 03:50:42;;;;;;;31.35;20.52;;;;;;;15.40;70.54;98772.27;1889926;76;22132;-66
2021/09/13 03:53:36;;;;;;;25.37;17.67;;;;;;;15.40;70.40;98774.86;1870582;76;22109;-66
2021/09/13 03:56:11;;;;;;;32.50;18.67;;;;;;;15.41;70.37;98774.42;1889526;76;22195;-65
2021/09/13 03:58:46;;;;;;;29.35;18.90;;;;;;;15.45;70.27;98774.81;1870740;76;22144;-68
2021/09/13 04:01:21;;;;;;;29.70;21.05;;;;;;;15.52;69.99;98772.98;1870775;76;22149;-67
2021/09/13 04:04:00;;;;;;;36.88;23.18;;;;;;;15.57;69.87;98777.69;1866804;76;22227;-69
2021/09/13 04:07:14;;;;;;;32.63;21.57;;;;;;;15.58;70.05;98772.92;1847053;76;22312;-68
2021/09/13 04:09:49;;;;;;;31.68;22.40;;;;;;;15.61;69.89;98775.48;1879644;76;24384;-68
2021/09/13 04:12:19;;;;;;;35.78;23.00;;;;;;;15.63;69.94;98777.19;1863052;76;22179;-66
2021/09/13 04:14:54;;;;;;;35.55;25.62;;;;;;;15.64;70.09;98773.69;1889889;76;22155;-67
2021/09/13 04:17:29;;;;;;;36.65;24.80;;;;;;;15.62;70.35;98773.29;1874018;76;22186;-68
2021/09/13 04:20:05;;;;;;;35.73;25.05;;;;;;;15.62;70.52;98779.38;1889847;76;22230;-68
2021/09/13 04:22:40;;;;;;;38.17;25.25;;;;;;;15.64;70.45;98785.84;1870588;76;22152;-68
2021/09/13 04:25:15;;;;;;;38.38;22.60;;;;;;;15.64;70.54;98780.20;1869613;76;23399;-71
2021/09/13 04:27:50;;;;;;;39.13;25.92;;;;;;;15.65;70.69;98782.38;1869628;76;22227;-70
2021/09/13 04:30:25;;;;;;;40.83;26.37;;;;;;;15.73;70.96;98782.32;1870396;76;22149;-72
2021/09/13 04:33:00;;;;;;;41.35;27.37;;;;;;;15.80;71.11;98788.73;1854604;76;27929;-67
2021/09/13 04:35:58;;;;;;;40.15;26.27;;;;;;;15.94;71.03;98787.23;1889604;76;22148;-70
2021/09/13 04:38:39;;;;;;;30.48;22.42;;;;;;;16.20;70.91;98785.55;1869607;76;22186;-71
2021/09/13 04:41:52;;;;;;;36.40;22.27;;;;;;;17.47;68.46;98780.38;1889761;76;22587;-69
2021/09/13 04:44:28;;;;;;;37.08;27.00;;;;;;;18.66;65.29;98776.88;1819309;77;28045;-71
2021/09/13 04:47:03;;;;;;;33.65;23.73;;;;;;;19.81;61.91;98783.44;1870584;76;22596;-72
2021/09/13 04:49:38;;;;;;;42.00;26.10;;;;;;;20.72;58.96;98786.75;1870462;76;22148;-68
2021/09/13 04:52:14;;;;;;;32.98;23.70;;;;;;;21.68;56.66;98789.10;1889930;76;22245;-69
2021/09/13 04:54:49;;;;;;;32.20;23.70;;;;;;;22.61;53.84;98792.50;1861121;76;22175;-69
2021/09/13 04:57:26;;;;;;;43.35;25.48;;;;;;;23.46;51.52;98789.81;1852401;76;22255;-71
2021/09/13 05:00:01;;;;;;;32.73;23.55;;;;;;;24.30;49.51;98791.69;1889163;76;22159;-68
2021/09/13 05:03:01;;;;;;;41.45;25.05;;;;;;;25.30;46.72;98795.54;1869558;76;22188;-70
2021/09/13 05:05:55;;;;;;;36.75;22.17;;;;;;;25.95;44.85;98793.45;1870344;76;22175;-68
2021/09/13 05:08:31;;;;;;;36.53;24.72;;;;;;;26.47;44.02;98791.88;1870293;76;22168;-67
2021/09/13 05:11:06;;;;;;;38.53;25.48;;;;;;;27.22;42.41;98796.83;1848340;76;38451;-67
2021/09/13 05:13:41;;;;;;;32.83;23.45;;;;;;;27.85;40.61;98800.94;1870445;76;22181;-67
2021/09/13 05:16:18;;;;;;;37.10;22.05;;;;;;;28.41;39.40;98802.25;1834815;77;22191;-65
2021/09/13 05:18:52;;;;;;;31.17;21.60;;;;;;;29.12;38.06;98805.12;1889744;76;22195;-69
2021/09/13 05:21:27;;;;;;;30.75;20.68;;;;;;;29.89;36.41;98807.80;1870605;76;22549;-71
2021/09/13 05:24:02;;;;;;;32.03;19.30;;;;;;;30.54;35.21;98809.84;1870521;76;22157;-68
2021/09/13 05:26:39;;;;;;;31.77;18.42;;;;;;;31.05;33.88;98805.10;1870646;76;22318;-69
2021/09/13 05:29:18;;;;;;;25.70;17.37;;;;;;;31.59;33.07;98807.66;1886162;76;22203;-68
2021/09/13 05:31:53;;;;;;;23.47;16.10;;;;;;;32.26;32.08;98812.61;1844060;76;22181;-60
2021/09/13 05:34:28;;;;;;;29.17;18.87;;;;;;;33.48;30.44;98822.48;1854824;76;27946;-63
2021/09/13 05:37:04;;;;;;;26.00;17.27;;;;;;;33.58;29.88;98823.05;1869888;76;22087;-62
2021/09/13 05:39:40;;;;;;;23.15;15.72;;;;;;;34.12;28.79;98822.75;1854559;76;27962;-62
2021/09/13 05:42:15;;;;;;;18.67;13.78;;;;;;;34.65;27.92;98823.44;1870607;76;22650;-63
2021/09/13 05:44:50;;;;;;;23.97;15.77;;;;;;;34.98;27.62;98827.53;1873912;76;28049;-64
2021/09/13 05:47:26;;;;;;;24.12;14.58;;;;;;;35.42;26.89;98826.10;1889985;76;22086;-62
2021/09/13 05:50:01;;;;;;;29.17;17.23;;;;;;;35.96;26.47;98830.90;1873975;76;27940;-66
2021/09/13 05:52:36;;;;;;;24.15;15.00;;;;;;;36.50;25.79;98835.41;1889895;76;22082;-65
2021/09/13 05:55:11;;;;;;;21.87;14.60;;;;;;;37.04;24.95;98843.55;1870446;76;20097;-64
2021/09/13 05:57:46;;;;;;;20.27;13.68;;;;;;;37.55;24.27;98849.17;1864919;76;22519;-65
2021/09/13 06:00:21;;;;;;;17.48;12.53;;;;;;;37.96;23.75;98850.75;1870543;76;22070;-63
2021/09/13 06:03:17;;;;;;;19.30;12.98;;;;;;;38.44;23.05;98853.35;1857665;76;20202;-64
2021/09/13 06:05:51;;;;;;;18.75;13.40;;;;;;;38.72;22.60;98850.38;1868269;76;22579;-64
2021/09/13 06:08:26;;;;;;;16.05;12.07;;;;;;;39.01;22.15;98857.54;1868349;76;22145;-64
2021/09/13 06:11:10;;;;;;;17.23;11.22;;;;;;;39.36;21.71;98858.25;1868173;76;22178;-64
2021/09/13 06:14:23;;;;;;;15.05;11.60;;;;;;;39.58;21.55;98859.89;1872673;75;22221;-64
2021/09/13 06:16:58;;;;;;;13.95;10.70;;;;;;;39.44;21.45;98854.18;1869856;76;22179;-63
2021/09/13 06:19:33;;;;;;;12.88;8.70;;;;;;;39.27;21.68;98855.17;1870643;76;22101;-63
2021/09/13 06:22:08;;;;;;;16.55;10.43;;;;;;;39.18;21.83;98856.17;1870284;76;22062;-64
2021/09/13 06:24:43;;;;;;;16.67;10.48;;;;;;;38.87;21.83;98856.81;1855584;76;22062;-67
2021/09/13 06:27:56;;;;;;;14.65;9.90;;;;;;;38.65;22.22;98852.92;1857720;76;22291;-64
2021/09/13 06:30:31;;;;;;;14.53;10.25;;;;;;;38.71;22.20;98854.10;1854969;76;22616;-67
2021/09/13 06:33:06;;;;;;;13.43;9.68;;;;;;;38.59;22.36;98858.45;1854882;76;22504;-64
2021/09/13 06:35:46;;;;;;;12.33;9.63;;;;;;;38.75;22.25;98856.78;1854712;76;22117;-65
2021/09/13 06:38:21;;;;;;;15.65;9.55;;;;;;;38.89;22.11;98860.22;1856089;76;22078;-67
2021/09/13 06:41:15;;;;;;;13.62;10.23;;;;;;;39.03;22.10;98859.57;1853169;76;22176;-65
2021/09/13 06:43:52;;;;;;;14.58;9.83;;;;;;;39.45;21.72;98864.47;1863610;76;22133;-64
2021/09/13 06:46:33;;;;;;;13.30;10.18;;;;;;;39.83;21.26;98861.55;1854807;76;22093;-67
2021/09/13 06:49:03;;;;;;;13.78;9.93;;;;;;;40.03;21.16;98867.40;1855609;76;22192;-66
2021/09/13 06:51:58;;;;;;;15.18;9.93;;;;;;;40.31;20.90;98870.52;1865423;76;22104;-66
2021/09/13 06:54:51;;;;;;;13.55;9.30;;;;;;;40.83;20.38;98875.81;1863192;76;22078;-65
2021/09/13 06:57:26;;;;;;;15.25;8.88;;;;;;;41.26;19.85;98876.19;1865498;76;22717;-66
2021/09/13 07:00:05;;;;;;;14.35;9.63;;;;;;;41.65;19.46;98880.59;1856234;76;22137;-66
2021/09/13 07:02:47;;;;;;;14.20;8.43;;;;;;;41.84;19.28;98876.50;1869637;76;22185;-64
2021/09/13 07:05:40;;;;;;;13.45;9.18;;;;;;;41.84;19.38;98881.92;1861123;76;22153;-68
2021/09/13 07:08:17;;;;;;;15.70;8.68;;;;;;;41.92;19.31;98884.54;1854310;76;22105;-66
2021/09/13 07:11:10;;;;;;;12.45;8.65;;;;;;;42.16;19.08;98882.09;1847906;76;27939;-66
2021/09/13 07:14:05;;;;;;;12.68;8.38;;;;;;;42.29;19.06;98880.91;1852059;76;22534;-66
2021/09/13 07:16:40;;;;;;;11.68;8.40;;;;;;;42.59;18.80;98875.95;1861210;76;22175;-64
2021/09/13 07:19:16;;;;;;;17.40;9.28;;;;;;;42.94;18.34;98878.34;1846590;76;28052;-65
2021/09/13 07:21:51;;;;;;;19.87;8.63;;;;;;;43.23;17.93;98888.75;1870677;76;22485;-66
2021/09/13 07:24:27;;;;;;;10.72;7.45;;;;;;;43.35;17.92;98888.02;1870558;76;22102;-64
2021/09/13 07:27:02;;;;;;;13.25;7.40;;;;;;;43.56;17.65;98887.66;1870629;76;22087;-64
2021/09/13 07:29:39;;;;;;;10.68;7.05;;;;;;;43.64;17.38;98886.20;1870556;76;22063;-63
2021/09/13 07:32:13;;;;;;;14.78;7.92;;;;;;;43.82;17.16;98890.30;1890015;76;22049;-66
2021/09/13 07:35:09;;;;;;;12.50;8.23;;;;;;;43.73;17.32;98889.07;1870607;76;22054;-66
2021/09/13 07:37:44;;;;;;;10.75;7.53;;;;;;;43.51;17.58;98893.71;1889914;76;22140;-67
2021/09/13 07:40:19;;;;;;;10.23;7.33;;;;;;;43.28;17.86;98887.65;1870645;76;22168;-65
2021/09/13 07:42:53;;;;;;;12.53;7.53;;;;;;;43.05;17.93;98893.27;1870654;76;22086;-67
2021/09/13 07:45:29;;;;;;;12.53;6.90;;;;;;;43.18;17.83;98894.80;1870591;76;22460;-65
2021/09/13 07:48:05;;;;;;;11.10;7.28;;;;;;;43.24;17.79;98894.00;1889881;76;22749;-65
2021/09/13 07:50:40;;;;;;;8.58;6.83;;;;;;;42.85;17.97;98895.80;1850822;77;22104;-64
2021/09/13 07:53:15;;;;;;;9.95;7.05;;;;;;;42.50;18.34;98897.78;1870591;76;22149;-65
2021/09/13 07:55:50;;;;;;;10.90;7.22;;;;;;;42.39;18.43;98891.50;1870642;76;22050;-65
2021/09/13 07:58:25;;;;;;;10.63;7.28;;;;;;;42.09;18.68;98889.82;1870618;76;22078;-66
2021/09/13 08:00:59;;;;;;;9.50;6.70;;;;;;;41.97;18.73;98892.15;1889930;76;22055;-66
2021/09/13 08:03:34;;;;;;;10.70;7.45;;;;;;;41.98;18.74;98896.05;1870668;76;22055;-65
2021/09/13 08:06:13;;;;;;;11.63;7.20;;;;;;;41.59;18.83;98887.59;1870455;76;22525;-65
2021/09/13 08:08:48;;;;;;;11.78;8.13;;;;;;;40.78;19.55;98876.87;1870655;76;22573;-65
2021/09/13 08:11:23;;;;;;;17.40;7.25;;;;;;;40.18;20.14;98878.33;1890019;76;22123;-64
2021/09/13 08:13:57;;;;;;;14.90;7.30;;;;;;;39.82;20.49;98867.98;1889944;76;22101;-65
2021/09/13 08:16:33;;;;;;;11.33;6.83;;;;;;;39.00;21.24;98872.03;1870644;76;22135;-67
2021/09/13 08:19:10;;;;;;;9.43;7.20;;;;;;;38.36;21.90;98862.74;1870455;76;22195;-68
2021/09/13 08:22:06;;;;;;;12.47;7.03;;;;;;;38.27;21.95;98866.41;1870623;76;22473;-67
2021/09/13 08:25:02;;;;;;;11.12;6.85;;;;;;;38.16;21.98;98868.89;1876393;75;22203;-67
2021/09/13 08:27:45;;;;;;;8.78;6.92;;;;;;;38.01;22.19;98871.34;1870686;76;22082;-68
2021/09/13 08:30:19;;;;;;;8.93;6.20;;;;;;;38.08;22.14;98862.97;1870749;76;22086;-69
2021/09/13 08:32:54;;;;;;;8.40;6.33;;;;;;;38.30;22.00;98865.59;1870650;76;22082;-67
2021/09/13 08:35:29;;;;;;;11.45;6.60;;;;;;;38.39;21.74;98860.55;1870720;76;22066;-68
2021/09/13 08:38:09;;;;;;;9.68;7.42;;;;;;;38.59;21.61;98856.27;1889909;76;22102;-67
2021/09/13 08:40:44;;;;;;;9.55;6.75;;;;;;;38.36;21.79;98858.19;1870676;76;22046;-67
2021/09/13 08:43:20;;;;;;;10.63;6.40;;;;;;;38.21;21.89;98864.70;1889963;76;22054;-68
2021/09/13 08:46:06;;;;;;;11.50;6.75;;;;;;;37.77;22.21;98858.07;1889936;76;22496;-66
2021/09/13 08:51:18;;;;;;;8.95;6.85;;;;;;;36.49;23.54;98851.21;1870552;76;22079;-66
2021/09/13 08:53:53;;;;;;;12.07;7.00;;;;;;;35.87;24.38;98844.70;1870946;76;22082;-66
2021/09/13 08:56:35;;;;;;;9.78;7.45;;;;;;;35.41;24.78;98835.63;1870877;76;22090;-65
2021/09/13 08:59:17;;;;;;;13.58;7.90;;;;;;;35.02;25.00;98837.00;1853828;76;28401;-65
2021/09/13 09:02:11;;;;;;;11.88;7.97;;;;;;;34.83;25.77;98827.60;1870663;76;22121;-66
2021/09/13 09:04:46;;;;;;;11.15;7.78;;;;;;;34.10;26.55;98829.23;1889893;76;22123;-68
2021/09/13 09:07:23;;;;;;;12.25;8.23;;;;;;;33.60;27.27;98829.95;1870677;76;22071;-65
2021/09/13 09:10:13;;;;;;;10.38;7.95;;;;;;;33.08;27.72;98829.05;1890059;76;22212;-66
2021/09/13 09:13:07;;;;;;;11.30;7.87;;;;;;;32.39;28.33;98822.69;1869804;76;22252;-65
2021/09/13 09:15:59;;;;;;;13.35;8.85;;;;;;;31.83;29.57;98816.02;1889923;76;22066;-67
2021/09/13 09:18:49;;;;;;;13.95;9.30;;;;;;;31.12;30.82;98800.16;1870671;76;22220;-66
2021/09/13 09:21:33;;;;;;;13.90;8.90;;;;;;;30.32;31.85;98806.55;1870615;76;22497;-63
2021/09/13 09:24:16;;;;;;;14.18;9.03;;;;;;;29.48;33.43;98800.89;1889887;76;22529;-69
2021/09/13 09:27:04;;;;;;;11.38;8.88;;;;;;;28.83;34.47;98799.58;1870644;76;22624;-69
2021/09/13 09:29:39;;;;;;;15.15;9.38;;;;;;;28.32;35.06;98790.44;1870702;76;22489;-66
2021/09/13 09:32:24;;;;;;;14.40;10.08;;;;;;;27.92;36.07;98782.36;1890073;76;22243;-66
2021/09/13 09:35:02;;;;;;;16.07;9.93;;;;;;;27.59;36.86;98783.13;1854713;76;28327;-67
2021/09/13 09:37:43;;;;;;;16.62;9.63;;;;;;;27.40;37.21;98781.61;1889996;76;22271;-66
2021/09/13 09:40:29;;;;;;;15.15;9.75;;;;;;;27.26;37.72;98781.11;1889998;76;22171;-63
2021/09/13 09:43:24;;;;;;;16.97;10.40;;;;;;;27.23;37.47;98782.63;1889975;76;22116;-66
2021/09/13 09:46:00;;;;;;;21.77;10.78;;;;;;;27.19;37.73;98780.24;1855380;76;22322;-71
2021/09/13 09:48:36;;;;;;;29.00;13.32;;;;;;;27.04;38.52;98774.87;1851536;76;22268;-68
2021/09/13 09:51:32;;;;;;;29.40;12.65;;;;;;;26.93;38.75;98770.70;1863506;76;22246;-69
2021/09/13 09:54:11;;;;;;;22.00;12.10;;;;;;;26.84;39.02;98771.23;1844542;76;28058;-65
2021/09/13 09:56:59;;;;;;;14.10;10.63;;;;;;;26.88;38.91;98770.59;1851882;76;22604;-66
2021/09/13 09:59:43;;;;;;;14.15;9.88;;;;;;;26.93;38.48;98775.16;1852399;76;22261;-68
2021/09/13 10:02:44;;;;;;;13.58;9.08;;;;;;;26.88;38.00;98774.57;1852049;76;22699;-72
2021/09/13 10:05:28;;;;;;;14.83;8.80;;;;;;;26.74;37.64;98772.71;1851698;76;22188;-66
2021/09/13 10:08:05;;;;;;;14.87;8.68;;;;;;;26.65;37.41;98771.95;1855811;76;22263;-69
2021/09/13 10:10:43;;;;;;;15.28;8.68;;;;;;;26.54;37.89;98773.42;1846969;76;22651;-63
2021/09/13 10:13:21;;;;;;;15.05;9.60;;;;;;;26.54;37.37;98779.19;1854778;76;27918;-63
2021/09/13 10:16:01;;;;;;;15.23;9.80;;;;;;;26.63;38.03;98773.34;1889908;76;22132;-67
2021/09/13 10:18:37;;;;;;;13.13;8.33;;;;;;;26.77;37.70;98764.14;1870409;76;22168;-69
2021/09/13 10:21:12;;;;;;;21.93;9.48;;;;;;;26.89;37.69;98762.55;1870678;76;22140;-69
2021/09/13 10:23:47;;;;;;;15.50;9.40;;;;;;;26.83;37.79;98757.63;1854765;76;27939;-68
2021/09/13 10:26:24;;;;;;;12.63;9.18;;;;;;;26.79;37.02;98758.73;1870701;76;22145;-68
2021/09/13 10:29:07;;;;;;;16.75;9.75;;;;;;;26.80;37.75;98757.81;1889992;76;22561;-68
2021/09/13 10:31:48;;;;;;;11.65;8.25;;;;;;;26.81;37.55;98748.91;1870665;76;22109;-70
2021/09/13 10:34:49;;;;;;;15.25;8.88;;;;;;;26.85;37.89;98749.97;1870420;76;22157;-66
2021/09/13 10:37:48;;;;;;;15.72;9.03;;;;;;;26.84;37.39;98748.72;1889925;76;22139;-67
2021/09/13 10:40:48;;;;;;;17.87;9.70;;;;;;;26.67;37.46;98750.21;1869753;76;22157;-69
2021/09/13 10:44:06;;;;;;;14.98;8.45;;;;;;;26.60;37.97;98741.77;1870636;76;22583;-67
2021/09/13 10:47:06;;;;;;;15.38;9.08;;;;;;;26.60;37.80;98745.73;1870569;76;22563;-69
2021/09/13 10:49:46;;;;;;;15.15;10.10;;;;;;;26.58;38.10;98736.55;1854701;76;27904;-68
2021/09/13 10:52:34;;;;;;;14.95;8.70;;;;;;;26.73;37.67;98737.92;1869710;76;22255;-67
2021/09/13 10:55:16;;;;;;;14.25;8.90;;;;;;;26.87;37.86;98743.27;1870650;76;22121;-69
2021/09/13 10:58:02;;;;;;;12.15;9.08;;;;;;;27.01;37.79;98736.66;1870533;76;22138;-69
2021/09/13 11:00:45;;;;;;;14.75;9.00;;;;;;;27.22;37.11;98733.69;1870634;76;22141;-68
2021/09/13 11:03:35;;;;;;;12.53;8.38;;;;;;;27.34;36.78;98740.05;1869922;76;22572;-67
2021/09/13 11:06:17;;;;;;;14.93;8.93;;;;;;;27.29;36.37;98736.34;1870482;76;22181;-66
2021/09/13 11:08:59;;;;;;;14.25;9.35;;;;;;;27.24;36.22;98731.80;1870682;76;22117;-68
2021/09/13 11:11:44;;;;;;;14.28;9.13;;;;;;;27.24;36.76;98723.85;1870584;76;22201;-68
2021/09/13 11:14:21;;;;;;;13.98;9.08;;;;;;;27.15;36.76;98725.72;1870445;76;22141;-71
2021/09/13 11:17:01;;;;;;;18.27;10.43;;;;;;;27.11;37.28;98718.90;1870638;76;22121;-70
2021/09/13 11:19:36;;;;;;;14.83;9.93;;;;;;;27.23;36.94;98719.52;1870807;76;22555;-68
2021/09/13 11:22:12;;;;;;;15.38;9.03;;;;;;;27.23;36.63;98712.41;1870409;76;22175;-67
2021/09/13 11:24:47;;;;;;;13.45;9.25;;;;;;;27.30;36.79;98713.34;1870694;76;22161;-71
2021/09/13 11:27:22;;;;;;;14.45;9.35;;;;;;;27.38;36.69;98722.55;1870637;76;22176;-69
2021/09/13 11:30:03;;;;;;;14.60;9.73;;;;;;;27.57;36.75;98714.77;1869767;76;22173;-70
2021/09/13 11:32:38;;;;;;;13.58;8.45;;;;;;;27.69;36.40;98713.99;1870695;76;22140;-67
2021/09/13 11:35:13;;;;;;;14.50;9.27;;;;;;;27.74;36.63;98712.38;1874010;76;27820;-71
2021/09/13 11:38:11;;;;;;;15.38;9.03;;;;;;;27.81;36.64;98701.31;1870448;76;22599;-70
2021/09/13 11:40:46;;;;;;;14.53;9.83;;;;;;;27.73;36.75;98707.52;1874038;76;27894;-67
2021/09/13 11:43:27;;;;;;;12.47;9.00;;;;;;;27.70;36.81;98703.75;1869919;76;22566;-70
2021/09/13 11:46:04;;;;;;;13.90;8.90;;;;;;;27.78;36.91;98703.27;1873863;76;28342;-67
2021/09/13 11:48:45;;;;;;;13.90;8.23;;;;;;;27.85;36.70;98697.50;1869709;76;22190;-68
2021/09/13 11:51:20;;;;;;;12.13;8.20;;;;;;;27.83;36.58;98700.72;1870662;76;22165;-68
2021/09/13 11:54:07;;;;;;;14.83;8.43;;;;;;;27.88;36.36;98697.78;1870686;76;22168;-68
2021/09/13 11:56:47;;;;;;;14.18;8.93;;;;;;;27.97;36.40;98696.34;1870649;76;22148;-69
2021/09/13 11:59:25;;;;;;;15.30;8.53;;;;;;;28.05;36.17;98686.09;1889944;76;22111;-68
2021/09/13 12:02:02;;;;;;;12.55;8.00;;;;;;;28.14;36.13;98689.48;1870546;76;22189;-66
2021/09/13 12:04:37;;;;;;;11.95;8.95;;;;;;;28.16;36.27;98690.20;1889966;76;22559;-66
2021/09/13 12:07:13;;;;;;;13.28;7.80;;;;;;;28.18;36.02;98690.11;1870671;76;22133;-69
2021/09/13 12:09:51;;;;;;;10.58;8.05;;;;;;;28.23;36.20;98676.91;1870407;76;22167;-70
2021/09/13 12:12:28;;;;;;;14.73;8.50;;;;;;;28.39;36.21;98678.55;1889926;76;22135;-68
2021/09/13 12:15:07;;;;;;;14.10;7.95;;;;;;;28.51;35.96;98675.10;1870662;76;22145;-67
2021/09/13 12:17:44;;;;;;;14.03;7.83;;;;;;;28.64;36.00;98676.45;1889920;76;22136;-67
2021/09/13 12:20:37;;;;;;;9.83;7.53;;;;;;;28.61;36.01;98674.86;1889897;76;22116;-68